Time,TemperatureF,DewpointF,PressureIn,WindDirection,WindDirectionDegrees,WindSpeedMPH,WindSpeedGustMPH,Humidity,HourlyPrecipIn,Conditions,Clouds,dailyrainin,SoftwareType,DateUTC
2013-06-21 00:00:00,59.1,56.8,30.21,SSW,212,2.0,2.0,92,0.00,,,0.00,Wunderground v.1.15,2013-06-21 04:00:00,
2013-06-21 00:02:00,59.2,56.9,30.21,SSW,212,2.0,2.0,92,0.00,,,0.00,Wunderground v.1.15,2013-06-21 04:02:00,
2013-06-21 00:08:00,59.3,57.3,30.21,SSW,213,2.0,2.0,93,0.00,,,0.00,Wunderground v.1.15,2013-06-21 04:08:00,
2013-06-21 00:10:00,59.2,57.2,30.21,SSW,213,2.0,2.0,93,0.00,,,0.00,Wunderground v.1.15,2013-06-21 04:10:00,
2013-06-21 00:12:00,59.0,56.7,30.22,SSW,213,2.0,2.0,92,0.00,,,0.00,Wunderground v.1.15,2013-06-21 04:12:00,
2013-06-21 00:18:00,58.3,56.0,30.22,SSW,213,1.0,2.0,92,0.00,,,0.00,Wunderground v.1.15,2013-06-21 04:18:00,
2013-06-21 00:24:00,57.8,55.5,30.22,SSW,213,0.0,0.0,92,0.00,,,0.00,Wunderground v.1.15,2013-06-21 04:24:00,
2013-06-21 00:26:00,57.7,55.4,30.22,SSW,213,0.0,0.0,92,0.00,,,0.00,Wunderground v.1.15,2013-06-21 04:26:00,
2013-06-21 00:32:00,57.7,55.4,30.22,SSW,213,0.0,0.0,92,0.00,,,0.00,Wunderground v.1.15,2013-06-21 04:32:00,
2013-06-21 00:38:00,57.7,55.7,30.22,SSW,213,0.0,0.0,93,0.00,,,0.00,Wunderground v.1.15,2013-06-21 04:38:00,
2013-06-21 00:44:00,57.7,55.7,30.22,SSW,213,0.0,0.0,93,0.00,,,0.00,Wunderground v.1.15,2013-06-21 04:44:00,
2013-06-21 00:50:00,57.7,55.7,30.22,SSW,213,0.0,0.0,93,0.00,,,0.00,Wunderground v.1.15,2013-06-21 04:50:00,
2013-06-21 00:56:00,57.9,55.9,30.22,SSW,213,0.0,0.0,93,0.00,,,0.00,Wunderground v.1.15,2013-06-21 04:56:00,
2013-06-21 01:02:00,57.8,55.8,30.22,SSW,213,0.0,0.0,93,0.00,,,0.00,Wunderground v.1.15,2013-06-21 05:02:00,
2013-06-21 01:08:00,57.6,55.6,30.22,SSW,213,0.0,0.0,93,0.00,,,0.00,Wunderground v.1.15,2013-06-21 05:08:00,
2013-06-21 01:14:00,57.5,55.5,30.22,SSW,213,0.0,0.0,93,0.00,,,0.00,Wunderground v.1.15,2013-06-21 05:14:00,
2013-06-21 01:20:00,57.3,55.3,30.22,SSW,213,0.0,0.0,93,0.00,,,0.00,Wunderground v.1.15,2013-06-21 05:20:00,
2013-06-21 01:26:00,56.9,54.9,30.22,SSW,213,0.0,0.0,93,0.00,,,0.00,Wunderground v.1.15,2013-06-21 05:26:00,
2013-06-21 01:32:00,56.5,54.5,30.22,SSW,213,0.0,0.0,93,0.00,,,0.00,Wunderground v.1.15,2013-06-21 05:32:00,
2013-06-21 01:38:00,56.4,54.4,30.23,SSW,213,0.0,0.0,93,0.00,,,0.00,Wunderground v.1.15,2013-06-21 05:38:00,
2013-06-21 01:44:00,56.5,54.5,30.22,SSW,213,0.0,0.0,93,0.00,,,0.00,Wunderground v.1.15,2013-06-21 05:44:00,
2013-06-21 01:50:00,56.6,54.9,30.22,SSW,213,0.0,0.0,94,0.00,,,0.00,Wunderground v.1.15,2013-06-21 05:50:00,
2013-06-21 01:56:00,56.6,54.9,30.22,SSW,213,0.0,0.0,94,0.00,,,0.00,Wunderground v.1.15,2013-06-21 05:56:00,
2013-06-21 02:02:00,56.6,54.9,30.22,SSW,213,0.0,0.0,94,0.00,,,0.00,Wunderground v.1.15,2013-06-21 06:02:00,
2013-06-21 02:08:00,56.5,54.5,30.22,SSW,213,0.0,0.0,93,0.00,,,0.00,Wunderground v.1.15,2013-06-21 06:08:00,
2013-06-21 02:14:00,56.1,54.1,30.22,SSW,213,0.0,0.0,93,0.00,,,0.00,Wunderground v.1.15,2013-06-21 06:14:00,
2013-06-21 02:20:00,55.9,54.2,30.22,SSW,213,0.0,0.0,94,0.00,,,0.00,Wunderground v.1.15,2013-06-21 06:20:00,
2013-06-21 02:26:00,55.9,54.2,30.22,SSW,213,0.0,0.0,94,0.00,,,0.00,Wunderground v.1.15,2013-06-21 06:26:00,
2013-06-21 02:32:00,55.9,54.2,30.22,SSW,213,0.0,3.0,94,0.00,,,0.00,Wunderground v.1.15,2013-06-21 06:32:00,
2013-06-21 02:38:00,56.0,54.3,30.21,SSW,213,1.0,3.0,94,0.00,,,0.00,Wunderground v.1.15,2013-06-21 06:38:00,
2013-06-21 02:44:00,55.7,54.0,30.21,SSW,213,0.0,1.0,94,0.00,,,0.00,Wunderground v.1.15,2013-06-21 06:44:00,
2013-06-21 02:50:00,55.7,54.0,30.22,SSW,213,0.0,0.0,94,0.00,,,0.00,Wunderground v.1.15,2013-06-21 06:50:00,
2013-06-21 02:56:00,55.3,53.6,30.21,SSW,213,0.0,0.0,94,0.00,,,0.00,Wunderground v.1.15,2013-06-21 06:56:00,
2013-06-21 03:02:00,54.9,52.9,30.21,SSW,213,0.0,0.0,93,0.00,,,0.00,Wunderground v.1.15,2013-06-21 07:02:00,
2013-06-21 03:08:00,54.7,52.7,30.21,SSW,213,0.0,0.0,93,0.00,,,0.00,Wunderground v.1.15,2013-06-21 07:08:00,
2013-06-21 03:14:00,55.0,53.3,30.21,SSW,213,0.0,0.0,94,0.00,,,0.00,Wunderground v.1.15,2013-06-21 07:14:00,
2013-06-21 03:20:00,54.8,53.1,30.21,SSW,213,0.0,0.0,94,0.00,,,0.00,Wunderground v.1.15,2013-06-21 07:20:00,
2013-06-21 03:26:00,54.9,53.2,30.22,SSW,213,0.0,0.0,94,0.00,,,0.00,Wunderground v.1.15,2013-06-21 07:26:00,
2013-06-21 03:32:00,54.7,53.0,30.21,SSW,213,0.0,0.0,94,0.00,,,0.00,Wunderground v.1.15,2013-06-21 07:32:00,
2013-06-21 03:38:00,54.4,52.7,30.21,SSW,213,0.0,0.0,94,0.00,,,0.00,Wunderground v.1.15,2013-06-21 07:38:00,
2013-06-21 03:44:00,54.3,52.6,30.21,SSW,213,0.0,0.0,94,0.00,,,0.00,Wunderground v.1.15,2013-06-21 07:44:00,
2013-06-21 03:50:00,54.4,52.7,30.22,SSW,213,0.0,0.0,94,0.00,,,0.00,Wunderground v.1.15,2013-06-21 07:50:00,
2013-06-21 03:56:00,54.3,52.6,30.22,SSW,213,0.0,2.0,94,0.00,,,0.00,Wunderground v.1.15,2013-06-21 07:56:00,
2013-06-21 04:02:00,54.3,52.6,30.22,SSW,213,2.0,3.0,94,0.00,,,0.00,Wunderground v.1.15,2013-06-21 08:02:00,
2013-06-21 04:08:00,54.5,52.8,30.22,SW,214,2.0,3.0,94,0.00,,,0.00,Wunderground v.1.15,2013-06-21 08:08:00,
2013-06-21 04:14:00,54.9,53.5,30.22,SW,215,1.0,2.0,95,0.00,,,0.00,Wunderground v.1.15,2013-06-21 08:14:00,
2013-06-21 04:20:00,55.5,54.1,30.22,SW,217,2.0,2.0,95,0.00,,,0.00,Wunderground v.1.15,2013-06-21 08:20:00,
2013-06-21 04:26:00,56.0,54.6,30.21,SW,218,1.0,2.0,95,0.00,,,0.00,Wunderground v.1.15,2013-06-21 08:26:00,
2013-06-21 04:32:00,56.7,55.3,30.22,SW,221,1.0,2.0,95,0.00,,,0.00,Wunderground v.1.15,2013-06-21 08:32:00,
2013-06-21 04:38:00,57.1,56.0,30.22,SW,221,2.0,3.0,96,0.00,,,0.00,Wunderground v.1.15,2013-06-21 08:38:00,
2013-06-21 04:44:00,57.3,56.2,30.22,SW,223,2.0,4.0,96,0.00,,,0.00,Wunderground v.1.15,2013-06-21 08:44:00,
2013-06-21 04:50:00,57.2,56.1,30.22,SW,223,3.0,3.0,96,0.00,,,0.00,Wunderground v.1.15,2013-06-21 08:50:00,
2013-06-21 04:56:00,57.2,56.1,30.22,SW,223,2.0,3.0,96,0.00,,,0.00,Wunderground v.1.15,2013-06-21 08:56:00,
2013-06-21 05:02:00,57.1,56.0,30.22,SW,223,1.0,1.0,96,0.00,,,0.00,Wunderground v.1.15,2013-06-21 09:02:00,
2013-06-21 05:08:00,57.0,55.9,30.22,SW,227,1.0,4.0,96,0.00,,,0.00,Wunderground v.1.15,2013-06-21 09:08:00,
2013-06-21 05:14:00,56.8,55.4,30.23,SW,227,2.0,3.0,95,0.00,,,0.00,Wunderground v.1.15,2013-06-21 09:14:00,
2013-06-21 05:20:00,56.5,55.1,30.23,SW,226,1.0,1.0,95,0.00,,,0.00,Wunderground v.1.15,2013-06-21 09:20:00,
2013-06-21 05:26:00,56.2,54.8,30.23,SW,226,1.0,3.0,95,0.00,,,0.00,Wunderground v.1.15,2013-06-21 09:26:00,
2013-06-21 05:32:00,55.9,54.5,30.23,SW,226,1.0,1.0,95,0.00,,,0.00,Wunderground v.1.15,2013-06-21 09:32:00,
2013-06-21 05:38:00,55.9,54.5,30.24,SW,226,0.0,1.0,95,0.00,,,0.00,Wunderground v.1.15,2013-06-21 09:38:00,
2013-06-21 05:44:00,56.0,54.6,30.24,SW,226,0.0,0.0,95,0.00,,,0.00,Wunderground v.1.15,2013-06-21 09:44:00,
2013-06-21 05:50:00,56.1,54.7,30.24,SW,226,0.0,0.0,95,0.00,,,0.00,Wunderground v.1.15,2013-06-21 09:50:00,
2013-06-21 05:56:00,56.1,54.7,30.24,SW,226,0.0,0.0,95,0.00,,,0.00,Wunderground v.1.15,2013-06-21 09:56:00,
2013-06-21 06:02:00,56.2,54.8,30.24,SW,226,0.0,0.0,95,0.00,,,0.00,Wunderground v.1.15,2013-06-21 10:02:00,
2013-06-21 06:08:00,56.2,54.8,30.24,SW,226,0.0,0.0,95,0.00,,,0.00,Wunderground v.1.15,2013-06-21 10:08:00,
2013-06-21 06:14:00,56.3,54.9,30.24,SW,226,0.0,0.0,95,0.00,,,0.00,Wunderground v.1.15,2013-06-21 10:14:00,
2013-06-21 06:20:00,56.4,55.0,30.24,SW,226,0.0,0.0,95,0.00,,,0.00,Wunderground v.1.15,2013-06-21 10:20:00,
2013-06-21 06:26:00,56.6,55.5,30.24,SW,226,0.0,0.0,96,0.00,,,0.00,Wunderground v.1.15,2013-06-21 10:26:00,
2013-06-21 06:32:00,56.7,55.6,30.24,SW,226,0.0,0.0,96,0.00,,,0.00,Wunderground v.1.15,2013-06-21 10:32:00,
2013-06-21 06:38:00,56.9,55.8,30.24,SW,226,0.0,0.0,96,0.00,,,0.00,Wunderground v.1.15,2013-06-21 10:38:00,
2013-06-21 06:44:00,57.2,56.1,30.24,SW,226,0.0,0.0,96,0.00,,,0.00,Wunderground v.1.15,2013-06-21 10:44:00,
2013-06-21 06:50:00,57.4,56.3,30.24,SW,226,0.0,0.0,96,0.00,,,0.00,Wunderground v.1.15,2013-06-21 10:50:00,
2013-06-21 06:56:00,57.7,56.6,30.24,SW,226,0.0,0.0,96,0.00,,,0.00,Wunderground v.1.15,2013-06-21 10:56:00,
2013-06-21 07:02:00,57.8,56.7,30.24,SW,226,0.0,0.0,96,0.00,,,0.00,Wunderground v.1.15,2013-06-21 11:02:00,
2013-06-21 07:08:00,58.1,57.0,30.24,SW,226,0.0,0.0,96,0.00,,,0.00,Wunderground v.1.15,2013-06-21 11:08:00,
2013-06-21 07:14:00,58.6,57.5,30.24,SW,226,0.0,0.0,96,0.00,,,0.00,Wunderground v.1.15,2013-06-21 11:14:00,
2013-06-21 07:20:00,59.0,57.9,30.24,SW,226,0.0,0.0,96,0.00,,,0.00,Wunderground v.1.15,2013-06-21 11:20:00,
2013-06-21 07:26:00,60.0,58.9,30.23,SW,226,0.0,0.0,96,0.00,,,0.00,Wunderground v.1.15,2013-06-21 11:26:00,
2013-06-21 07:32:00,60.6,59.7,30.24,SW,226,0.0,0.0,97,0.00,,,0.00,Wunderground v.1.15,2013-06-21 11:32:00,
2013-06-21 07:38:00,61.3,60.4,30.24,SW,226,0.0,0.0,97,0.00,,,0.00,Wunderground v.1.15,2013-06-21 11:38:00,
2013-06-21 07:44:00,61.7,60.5,30.24,SW,225,0.0,1.0,96,0.00,,,0.00,Wunderground v.1.15,2013-06-21 11:44:00,
2013-06-21 07:50:00,61.1,59.4,30.23,SW,225,0.0,0.0,94,0.00,,,0.00,Wunderground v.1.15,2013-06-21 11:50:00,
2013-06-21 07:56:00,60.9,58.9,30.23,SW,226,0.0,0.0,93,0.00,,,0.00,Wunderground v.1.15,2013-06-21 11:56:00,
2013-06-21 08:02:00,61.8,60.1,30.23,SW,226,0.0,0.0,94,0.00,,,0.00,Wunderground v.1.15,2013-06-21 12:02:00,
2013-06-21 08:08:00,62.2,59.5,30.24,SW,226,0.0,0.0,91,0.00,,,0.00,Wunderground v.1.15,2013-06-21 12:08:00,
2013-06-21 08:14:00,62.7,59.7,30.24,SW,226,0.0,0.0,90,0.00,,,0.00,Wunderground v.1.15,2013-06-21 12:14:00,
2013-06-21 08:20:00,63.5,60.2,30.24,SW,225,0.0,0.0,89,0.00,,,0.00,Wunderground v.1.15,2013-06-21 12:20:00,
2013-06-21 08:26:00,64.2,60.6,30.24,SW,225,0.0,0.0,88,0.00,,,0.00,Wunderground v.1.15,2013-06-21 12:26:00,
2013-06-21 08:32:00,64.6,61.0,30.24,SW,225,0.0,0.0,88,0.00,,,0.00,Wunderground v.1.15,2013-06-21 12:32:00,
2013-06-21 08:38:00,66.1,61.8,30.24,SW,225,0.0,0.0,86,0.00,,,0.00,Wunderground v.1.15,2013-06-21 12:38:00,
2013-06-21 08:44:00,67.7,63.0,30.24,SE,145,0.0,0.0,85,0.00,,,0.00,Wunderground v.1.15,2013-06-21 12:44:00,
2013-06-21 08:50:00,70.1,64.0,30.24,South,184,0.0,0.0,81,0.00,,,0.00,Wunderground v.1.15,2013-06-21 12:50:00,
2013-06-21 08:56:00,69.5,63.4,30.24,South,179,1.0,5.0,81,0.00,,,0.00,Wunderground v.1.15,2013-06-21 12:56:00,
2013-06-21 09:02:00,70.1,64.0,30.24,South,190,3.0,4.0,81,0.00,,,0.00,Wunderground v.1.15,2013-06-21 13:02:00,
2013-06-21 09:08:00,70.6,63.8,30.24,SSW,213,4.0,4.0,79,0.00,,,0.00,Wunderground v.1.15,2013-06-21 13:08:00,
2013-06-21 09:14:00,71.1,65.0,30.24,South,184,2.0,6.0,81,0.00,,,0.00,Wunderground v.1.15,2013-06-21 13:14:00,
2013-06-21 09:20:00,72.7,65.8,30.24,SSW,200,3.0,3.0,79,0.00,,,0.00,Wunderground v.1.15,2013-06-21 13:20:00,
2013-06-21 09:26:00,72.7,65.8,30.24,South,188,2.0,3.0,79,0.00,,,0.00,Wunderground v.1.15,2013-06-21 13:26:00,
2013-06-21 09:32:00,72.9,65.3,30.24,South,175,2.0,3.0,77,0.00,,,0.00,Wunderground v.1.15,2013-06-21 13:32:00,
2013-06-21 09:38:00,73.6,65.6,30.23,South,170,3.0,3.0,76,0.00,,,0.00,Wunderground v.1.15,2013-06-21 13:38:00,
2013-06-21 09:44:00,74.6,66.1,30.23,SSE,167,3.0,5.0,75,0.00,,,0.00,Wunderground v.1.15,2013-06-21 13:44:00,
2013-06-21 09:50:00,75.5,66.6,30.23,SSE,153,3.0,3.0,74,0.00,,,0.00,Wunderground v.1.15,2013-06-21 13:50:00,
2013-06-21 09:56:00,74.9,65.3,30.23,South,183,3.0,8.0,72,0.00,,,0.00,Wunderground v.1.15,2013-06-21 13:56:00,
2013-06-21 10:02:00,74.2,65.8,30.23,SSW,206,5.0,6.0,75,0.00,,,0.00,Wunderground v.1.15,2013-06-21 14:02:00,
2013-06-21 10:08:00,74.3,65.9,30.23,South,180,4.0,7.0,75,0.00,,,0.00,Wunderground v.1.15,2013-06-21 14:08:00,
2013-06-21 10:14:00,75.2,66.3,30.23,SSW,204,5.0,7.0,74,0.00,,,0.00,Wunderground v.1.15,2013-06-21 14:14:00,
2013-06-21 10:20:00,74.8,65.6,30.23,SSW,213,4.0,4.0,73,0.00,,,0.00,Wunderground v.1.15,2013-06-21 14:20:00,
2013-06-21 10:26:00,74.8,66.0,30.22,SW,229,3.0,5.0,74,0.00,,,0.00,Wunderground v.1.15,2013-06-21 14:26:00,
2013-06-21 10:32:00,75.0,66.1,30.22,SSW,205,2.0,3.0,74,0.00,,,0.00,Wunderground v.1.15,2013-06-21 14:32:00,
2013-06-21 10:38:00,75.3,66.4,30.22,South,189,3.0,5.0,74,0.00,,,0.00,Wunderground v.1.15,2013-06-21 14:38:00,
2013-06-21 10:44:00,75.7,67.2,30.22,SSW,192,3.0,5.0,75,0.00,,,0.00,Wunderground v.1.15,2013-06-21 14:44:00,
2013-06-21 10:50:00,75.2,66.7,30.22,NW,325,2.0,2.0,75,0.00,,,0.00,Wunderground v.1.15,2013-06-21 14:50:00,
2013-06-21 10:56:00,76.0,66.7,30.23,WSW,240,1.0,5.0,73,0.00,,,0.00,Wunderground v.1.15,2013-06-21 14:56:00,
2013-06-21 11:02:00,76.0,67.1,30.23,SW,230,3.0,3.0,74,0.00,,,0.00,Wunderground v.1.15,2013-06-21 15:02:00,
2013-06-21 11:08:00,75.4,67.3,30.23,SSW,211,2.0,3.0,76,0.00,,,0.00,Wunderground v.1.15,2013-06-21 15:08:00,
2013-06-21 11:14:00,77.0,67.3,30.23,SW,234,2.0,3.0,72,0.00,,,0.00,Wunderground v.1.15,2013-06-21 15:14:00,
2013-06-21 11:20:00,75.5,66.2,30.23,SW,236,2.0,3.0,73,0.00,,,0.00,Wunderground v.1.15,2013-06-21 15:20:00,
2013-06-21 11:26:00,75.6,67.5,30.23,SW,234,1.0,3.0,76,0.00,,,0.00,Wunderground v.1.15,2013-06-21 15:26:00,
2013-06-21 11:32:00,78.0,67.4,30.23,SE,136,1.0,2.0,70,0.00,,,0.00,Wunderground v.1.15,2013-06-21 15:32:00,
2013-06-21 11:38:00,77.1,66.6,30.23,SE,136,1.0,2.0,70,0.00,,,0.00,Wunderground v.1.15,2013-06-21 15:38:00,
2013-06-21 11:44:00,76.8,66.7,30.23,SSW,196,0.0,1.0,71,0.00,,,0.00,Wunderground v.1.15,2013-06-21 15:44:00,
2013-06-21 11:50:00,76.3,65.8,30.23,SSW,199,1.0,1.0,70,0.00,,,0.00,Wunderground v.1.15,2013-06-21 15:50:00,
2013-06-21 11:56:00,76.1,65.2,30.23,SW,233,1.0,2.0,69,0.00,,,0.00,Wunderground v.1.15,2013-06-21 15:56:00,
2013-06-21 12:02:00,76.6,66.1,30.23,SW,232,1.0,1.0,70,0.00,,,0.00,Wunderground v.1.15,2013-06-21 16:02:00,
2013-06-21 12:08:00,76.9,66.4,30.22,ENE,74,1.0,2.0,70,0.00,,,0.00,Wunderground v.1.15,2013-06-21 16:08:00,
2013-06-21 12:14:00,76.4,65.1,30.22,ENE,73,2.0,2.0,68,0.00,,,0.00,Wunderground v.1.15,2013-06-21 16:14:00,
2013-06-21 12:20:00,76.4,65.5,30.23,ENE,73,1.0,1.0,69,0.00,,,0.00,Wunderground v.1.15,2013-06-21 16:20:00,
2013-06-21 12:26:00,77.2,65.8,30.22,SE,135,1.0,1.0,68,0.00,,,0.00,Wunderground v.1.15,2013-06-21 16:26:00,
2013-06-21 12:32:00,77.2,65.4,30.22,SE,133,2.0,2.0,67,0.00,,,0.00,Wunderground v.1.15,2013-06-21 16:32:00,
2013-06-21 12:38:00,76.8,65.0,30.22,SE,133,0.0,2.0,67,0.00,,,0.00,Wunderground v.1.15,2013-06-21 16:38:00,
2013-06-21 12:44:00,76.8,65.0,30.22,SE,133,0.0,0.0,67,0.00,,,0.00,Wunderground v.1.15,2013-06-21 16:44:00,
2013-06-21 12:50:00,77.6,65.8,30.22,SE,133,0.0,0.0,67,0.00,,,0.00,Wunderground v.1.15,2013-06-21 16:50:00,
2013-06-21 12:56:00,79.1,65.4,30.22,SE,134,0.0,0.0,63,0.00,,,0.00,Wunderground v.1.15,2013-06-21 16:56:00,
2013-06-21 13:02:00,79.6,65.9,30.22,SE,134,0.0,0.0,63,0.00,,,0.00,Wunderground v.1.15,2013-06-21 17:02:00,
2013-06-21 13:08:00,79.5,65.8,30.22,SE,134,0.0,2.0,63,0.00,,,0.00,Wunderground v.1.15,2013-06-21 17:08:00,
2013-06-21 13:14:00,81.5,66.8,30.22,ESE,123,2.0,3.0,61,0.00,,,0.00,Wunderground v.1.15,2013-06-21 17:14:00,
2013-06-21 13:20:00,79.9,68.4,30.22,ESE,119,3.0,4.0,68,0.00,,,0.00,Wunderground v.1.15,2013-06-21 17:20:00,
2013-06-21 13:28:00,81.5,68.1,30.22,SE,128,2.0,4.0,64,0.00,,,0.00,Wunderground v.1.15,2013-06-21 17:28:00,
2013-06-21 13:34:00,79.4,65.2,30.22,NE,40,0.0,4.0,62,0.00,,,0.00,Wunderground v.1.15,2013-06-21 17:34:00,
2013-06-21 13:40:00,78.9,66.1,30.22,NE,51,2.0,5.0,65,0.00,,,0.00,Wunderground v.1.15,2013-06-21 17:40:00,
2013-06-21 13:46:00,79.1,65.0,30.21,ENE,59,3.0,5.0,62,0.00,,,0.00,Wunderground v.1.15,2013-06-21 17:46:00,
2013-06-21 13:50:00,79.6,67.2,30.21,SE,128,2.0,4.0,66,0.00,,,0.00,Wunderground v.1.15,2013-06-21 17:50:00,
2013-06-21 13:56:00,81.2,65.0,30.21,NNE,32,2.0,8.0,58,0.00,,,0.00,Wunderground v.1.15,2013-06-21 17:56:00,
2013-06-21 13:58:00,80.6,64.9,30.21,NE,35,2.0,8.0,59,0.00,,,0.00,Wunderground v.1.15,2013-06-21 17:58:00,
2013-06-21 14:04:00,80.8,66.1,30.21,SSE,153,1.0,3.0,61,0.00,,,0.00,Wunderground v.1.15,2013-06-21 18:04:00,
2013-06-21 14:10:00,81.9,66.2,30.20,East,92,2.0,3.0,59,0.00,,,0.00,Wunderground v.1.15,2013-06-21 18:10:00,
2013-06-21 14:16:00,82.3,67.5,30.20,South,180,2.0,6.0,61,0.00,,,0.00,Wunderground v.1.15,2013-06-21 18:16:00,
2013-06-21 14:22:00,83.5,67.2,30.20,East,100,3.0,6.0,58,0.00,,,0.00,Wunderground v.1.15,2013-06-21 18:22:00,
2013-06-21 14:24:00,83.3,66.5,30.20,SSE,153,3.0,6.0,57,0.00,,,0.00,Wunderground v.1.15,2013-06-21 18:24:00,
2013-06-21 14:26:00,83.6,66.2,30.20,SSE,167,3.0,6.0,56,0.00,,,0.00,Wunderground v.1.15,2013-06-21 18:26:00,
2013-06-21 14:28:00,84.0,67.6,30.20,SSE,148,3.0,6.0,58,0.00,,,0.00,Wunderground v.1.15,2013-06-21 18:28:00,
2013-06-21 14:30:00,83.3,63.8,30.20,South,183,2.0,2.0,52,0.00,,,0.00,Wunderground v.1.15,2013-06-21 18:30:00,
2013-06-21 14:36:00,83.9,66.0,30.20,SSE,159,2.0,6.0,55,0.00,,,0.00,Wunderground v.1.15,2013-06-21 18:36:00,
2013-06-21 14:42:00,84.2,66.8,30.20,South,180,3.0,7.0,56,0.00,,,0.00,Wunderground v.1.15,2013-06-21 18:42:00,
2013-06-21 14:46:00,83.6,65.7,30.19,SSW,210,4.0,7.0,55,0.00,,,0.00,Wunderground v.1.15,2013-06-21 18:46:00,
2013-06-21 14:48:00,83.5,66.2,30.20,ESE,109,3.0,7.0,56,0.00,,,0.00,Wunderground v.1.15,2013-06-21 18:48:00,
2013-06-21 14:50:00,83.3,64.4,30.20,ESE,114,4.0,4.0,53,0.00,,,0.00,Wunderground v.1.15,2013-06-21 18:50:00,
2013-06-21 14:54:00,82.8,63.9,30.20,ESE,113,4.0,7.0,53,0.00,,,0.00,Wunderground v.1.15,2013-06-21 18:54:00,
2013-06-21 15:00:00,81.8,64.1,30.19,SE,134,4.0,4.0,55,0.00,,,0.00,Wunderground v.1.15,2013-06-21 19:00:00,
2013-06-21 15:06:00,80.8,65.1,30.19,South,186,2.0,4.0,59,0.00,,,0.00,Wunderground v.1.15,2013-06-21 19:06:00,
2013-06-21 15:10:00,80.6,65.9,30.19,South,190,1.0,1.0,61,0.00,,,0.00,Wunderground v.1.15,2013-06-21 19:10:00,
2013-06-21 15:16:00,82.2,67.4,30.19,SE,146,2.0,3.0,61,0.00,,,0.00,Wunderground v.1.15,2013-06-21 19:16:00,
2013-06-21 15:22:00,81.7,64.5,30.19,SE,146,1.0,1.0,56,0.00,,,0.00,Wunderground v.1.15,2013-06-21 19:22:00,
2013-06-21 15:28:00,82.0,64.2,30.19,SSE,156,1.0,5.0,55,0.00,,,0.00,Wunderground v.1.15,2013-06-21 19:28:00,
2013-06-21 15:34:00,80.8,64.1,30.19,ESE,106,2.0,7.0,57,0.00,,,0.00,Wunderground v.1.15,2013-06-21 19:34:00,
2013-06-21 15:38:00,80.7,65.0,30.19,ESE,119,2.0,7.0,59,0.00,,,0.00,Wunderground v.1.15,2013-06-21 19:38:00,
2013-06-21 15:44:00,81.4,64.7,30.19,SSE,148,2.0,3.0,57,0.00,,,0.00,Wunderground v.1.15,2013-06-21 19:44:00,
2013-06-21 15:48:00,81.3,63.6,30.18,SSE,155,2.0,3.0,55,0.00,,,0.00,Wunderground v.1.15,2013-06-21 19:48:00,
2013-06-21 15:54:00,82.4,67.1,30.18,SSE,155,1.0,2.0,60,0.00,,,0.00,Wunderground v.1.15,2013-06-21 19:54:00,
2013-06-21 16:00:00,85.1,66.6,30.18,South,169,4.0,6.0,54,0.00,,,0.00,Wunderground v.1.15,2013-06-21 20:00:00,
2013-06-21 16:06:00,84.4,65.4,30.18,SE,127,6.0,7.0,53,0.00,,,0.00,Wunderground v.1.15,2013-06-21 20:06:00,
2013-06-21 16:10:00,83.7,66.3,30.18,SE,129,6.0,7.0,56,0.00,,,0.00,Wunderground v.1.15,2013-06-21 20:10:00,
2013-06-21 16:16:00,84.1,67.2,30.18,SE,144,4.0,7.0,57,0.00,,,0.00,Wunderground v.1.15,2013-06-21 20:16:00,
2013-06-21 16:22:00,83.6,64.7,30.18,East,92,1.0,2.0,53,0.00,,,0.00,Wunderground v.1.15,2013-06-21 20:22:00,
2013-06-21 16:28:00,84.4,67.0,30.18,South,190,3.0,6.0,56,0.00,,,0.00,Wunderground v.1.15,2013-06-21 20:28:00,
2013-06-21 16:30:00,84.6,66.7,30.18,SW,216,3.0,8.0,55,0.00,,,0.00,Wunderground v.1.15,2013-06-21 20:30:00,
2013-06-21 16:36:00,82.9,65.1,30.18,South,170,4.0,8.0,55,0.00,,,0.00,Wunderground v.1.15,2013-06-21 20:36:00,
2013-06-21 16:42:00,82.5,66.7,30.18,SSW,198,3.0,5.0,59,0.00,,,0.00,Wunderground v.1.15,2013-06-21 20:42:00,
2013-06-21 16:48:00,83.9,68.0,30.18,SSE,152,2.0,9.0,59,0.00,,,0.00,Wunderground v.1.15,2013-06-21 20:48:00,
2013-06-21 16:54:00,84.7,65.7,30.18,ESE,123,4.0,6.0,53,0.00,,,0.00,Wunderground v.1.15,2013-06-21 20:54:00,
2013-06-21 17:00:00,84.3,66.4,30.17,SSE,167,4.0,4.0,55,0.00,,,0.00,Wunderground v.1.15,2013-06-21 21:00:00,
2013-06-21 17:06:00,84.8,65.8,30.17,SE,140,3.0,5.0,53,0.00,,,0.00,Wunderground v.1.15,2013-06-21 21:06:00,
2013-06-21 17:12:00,84.8,64.7,30.17,SSW,208,3.0,6.0,51,0.00,,,0.00,Wunderground v.1.15,2013-06-21 21:12:00,
2013-06-21 17:14:00,84.5,65.5,30.17,South,191,3.0,6.0,53,0.00,,,0.00,Wunderground v.1.15,2013-06-21 21:14:00,
2013-06-21 17:20:00,84.5,66.6,30.17,SSE,168,4.0,4.0,55,0.00,,,0.00,Wunderground v.1.15,2013-06-21 21:20:00,
2013-06-21 17:26:00,85.1,66.6,30.17,SSE,168,4.0,6.0,54,0.00,,,0.00,Wunderground v.1.15,2013-06-21 21:26:00,
2013-06-21 17:32:00,83.9,65.5,30.17,SSE,148,5.0,7.0,54,0.00,,,0.00,Wunderground v.1.15,2013-06-21 21:32:00,
2013-06-21 17:38:00,83.9,67.0,30.17,SSW,203,7.0,8.0,57,0.00,,,0.00,Wunderground v.1.15,2013-06-21 21:38:00,
2013-06-21 17:44:00,84.0,66.1,30.17,SSE,165,6.0,7.0,55,0.00,,,0.00,Wunderground v.1.15,2013-06-21 21:44:00,
2013-06-21 17:50:00,83.6,67.3,30.17,SE,139,5.0,5.0,58,0.00,,,0.00,Wunderground v.1.15,2013-06-21 21:50:00,
2013-06-21 17:56:00,83.6,65.7,30.17,South,175,4.0,8.0,55,0.00,,,0.00,Wunderground v.1.15,2013-06-21 21:56:00,
2013-06-21 18:02:00,83.3,66.5,30.17,South,175,6.0,8.0,57,0.00,,,0.00,Wunderground v.1.15,2013-06-21 22:02:00,
2013-06-21 18:08:00,83.4,66.1,30.17,South,178,6.0,8.0,56,0.00,,,0.00,Wunderground v.1.15,2013-06-21 22:08:00,
2013-06-21 18:14:00,81.8,66.1,30.16,SE,139,7.0,9.0,59,0.00,,,0.00,Wunderground v.1.15,2013-06-21 22:14:00,
2013-06-21 18:20:00,81.2,67.9,30.17,South,169,4.0,4.0,64,0.00,,,0.00,Wunderground v.1.15,2013-06-21 22:20:00,
2013-06-21 18:26:00,82.5,66.7,30.17,South,184,3.0,8.0,59,0.00,,,0.00,Wunderground v.1.15,2013-06-21 22:26:00,
2013-06-21 18:32:00,82.5,66.7,30.17,SSE,147,5.0,6.0,59,0.00,,,0.00,Wunderground v.1.15,2013-06-21 22:32:00,
2013-06-21 18:38:00,81.7,66.5,30.17,SSW,195,6.0,9.0,60,0.00,,,0.00,Wunderground v.1.15,2013-06-21 22:38:00,
2013-06-21 18:44:00,82.2,66.9,30.16,SSE,147,4.0,6.0,60,0.00,,,0.00,Wunderground v.1.15,2013-06-21 22:44:00,
2013-06-21 18:50:00,81.5,66.8,30.17,South,171,5.0,5.0,61,0.00,,,0.00,Wunderground v.1.15,2013-06-21 22:50:00,
2013-06-21 18:56:00,81.4,66.7,30.17,SSE,150,5.0,7.0,61,0.00,,,0.00,Wunderground v.1.15,2013-06-21 22:56:00,
2013-06-21 19:02:00,81.5,65.8,30.17,SE,125,4.0,9.0,59,0.00,,,0.00,Wunderground v.1.15,2013-06-21 23:02:00,
2013-06-21 19:08:00,80.1,65.4,30.17,South,173,5.0,9.0,61,0.00,,,0.00,Wunderground v.1.15,2013-06-21 23:08:00,
2013-06-21 19:14:00,79.2,66.0,30.17,SSE,156,4.0,5.0,64,0.00,,,0.00,Wunderground v.1.15,2013-06-21 23:14:00,
2013-06-21 19:20:00,78.8,66.0,30.17,SSE,149,3.0,3.0,65,0.00,,,0.00,Wunderground v.1.15,2013-06-21 23:20:00,
2013-06-21 19:26:00,78.9,65.2,30.17,SE,135,4.0,4.0,63,0.00,,,0.00,Wunderground v.1.15,2013-06-21 23:26:00,
2013-06-21 19:32:00,79.0,65.3,30.17,South,173,4.0,10.0,63,0.00,,,0.00,Wunderground v.1.15,2013-06-21 23:32:00,
2013-06-21 19:38:00,78.7,65.0,30.17,SSE,149,3.0,10.0,63,0.00,,,0.00,Wunderground v.1.15,2013-06-21 23:38:00,
2013-06-21 19:44:00,78.8,65.6,30.17,SSE,154,2.0,3.0,64,0.00,,,0.00,Wunderground v.1.15,2013-06-21 23:44:00,
2013-06-21 19:50:00,78.7,65.9,30.17,SSE,164,1.0,5.0,65,0.00,,,0.00,Wunderground v.1.15,2013-06-21 23:50:00,
2013-06-21 19:56:00,78.2,65.9,30.17,SSE,167,2.0,5.0,66,0.00,,,0.00,Wunderground v.1.15,2013-06-21 23:56:00,
2013-06-21 20:02:00,78.0,65.7,30.17,South,169,1.0,1.0,66,0.00,,,0.00,Wunderground v.1.15,2013-06-22 00:02:00,
2013-06-21 20:08:00,77.4,64.7,30.17,SSW,200,3.0,6.0,65,0.00,,,0.00,Wunderground v.1.15,2013-06-22 00:08:00,
2013-06-21 20:14:00,76.9,64.7,30.17,SSE,160,4.0,6.0,66,0.00,,,0.00,Wunderground v.1.15,2013-06-22 00:14:00,
2013-06-21 20:20:00,76.4,64.6,30.17,SSW,193,2.0,2.0,67,0.00,,,0.00,Wunderground v.1.15,2013-06-22 00:20:00,
2013-06-21 20:26:00,76.1,64.3,30.17,South,184,2.0,2.0,67,0.00,,,0.00,Wunderground v.1.15,2013-06-22 00:26:00,
2013-06-21 20:32:00,75.7,64.4,30.17,SSW,204,2.0,5.0,68,0.00,,,0.00,Wunderground v.1.15,2013-06-22 00:32:00,
2013-06-21 20:38:00,75.3,64.4,30.17,SW,216,3.0,5.0,69,0.00,,,0.00,Wunderground v.1.15,2013-06-22 00:38:00,
2013-06-21 20:44:00,74.9,64.0,30.17,SSW,192,3.0,4.0,69,0.00,,,0.00,Wunderground v.1.15,2013-06-22 00:44:00,
2013-06-21 20:50:00,74.6,64.2,30.17,SW,221,1.0,1.0,70,0.00,,,0.00,Wunderground v.1.15,2013-06-22 00:50:00,
2013-06-21 20:56:00,74.2,64.2,30.17,SW,221,0.0,1.0,71,0.00,,,0.00,Wunderground v.1.15,2013-06-22 00:56:00,
2013-06-21 21:02:00,73.7,64.5,30.17,SW,221,0.0,0.0,73,0.00,,,0.00,Wunderground v.1.15,2013-06-22 01:02:00,
2013-06-21 21:08:00,73.1,64.7,30.17,SW,221,0.0,0.0,75,0.00,,,0.00,Wunderground v.1.15,2013-06-22 01:08:00,
2013-06-21 21:14:00,72.2,64.6,30.17,South,174,0.0,2.0,77,0.00,,,0.00,Wunderground v.1.15,2013-06-22 01:14:00,
2013-06-21 21:20:00,71.5,63.5,30.17,South,184,2.0,7.0,76,0.00,,,0.00,Wunderground v.1.15,2013-06-22 01:20:00,
2013-06-21 21:26:00,71.3,63.7,30.16,SSW,208,4.0,7.0,77,0.00,,,0.00,Wunderground v.1.15,2013-06-22 01:26:00,
2013-06-21 21:32:00,71.5,63.5,30.17,SSW,202,5.0,6.0,76,0.00,,,0.00,Wunderground v.1.15,2013-06-22 01:32:00,
2013-06-21 21:38:00,71.7,63.4,30.17,SSW,202,5.0,6.0,75,0.00,,,0.00,Wunderground v.1.15,2013-06-22 01:38:00,
2013-06-21 21:44:00,71.7,63.0,30.17,SW,221,3.0,5.0,74,0.00,,,0.00,Wunderground v.1.15,2013-06-22 01:44:00,
2013-06-21 21:50:00,71.6,62.9,30.17,SW,225,2.0,2.0,74,0.00,,,0.00,Wunderground v.1.15,2013-06-22 01:50:00,
2013-06-21 21:56:00,71.6,62.5,30.17,SW,223,2.0,3.0,73,0.00,,,0.00,Wunderground v.1.15,2013-06-22 01:56:00,
2013-06-21 22:02:00,71.5,62.4,30.18,WSW,238,3.0,5.0,73,0.00,,,0.00,Wunderground v.1.15,2013-06-22 02:02:00,
2013-06-21 22:08:00,71.3,63.0,30.18,WSW,247,4.0,5.0,75,0.00,,,0.00,Wunderground v.1.15,2013-06-22 02:08:00,
2013-06-21 22:14:00,71.0,63.1,30.18,SW,229,4.0,5.0,76,0.00,,,0.00,Wunderground v.1.15,2013-06-22 02:14:00,
2013-06-21 22:20:00,70.6,63.0,30.19,SW,235,2.0,2.0,77,0.00,,,0.00,Wunderground v.1.15,2013-06-22 02:20:00,
2013-06-21 22:26:00,70.2,63.0,30.19,SW,236,1.0,2.0,78,0.00,,,0.00,Wunderground v.1.15,2013-06-22 02:26:00,
2013-06-21 22:32:00,69.8,63.0,30.20,SW,234,0.0,4.0,79,0.00,,,0.00,Wunderground v.1.15,2013-06-22 02:32:00,
2013-06-21 22:38:00,69.1,63.0,30.19,SW,229,1.0,5.0,81,0.00,,,0.00,Wunderground v.1.15,2013-06-22 02:38:00,
2013-06-21 22:44:00,68.4,62.7,30.20,SW,227,2.0,5.0,82,0.00,,,0.00,Wunderground v.1.15,2013-06-22 02:44:00,
2013-06-21 22:50:00,67.9,62.2,30.20,SW,227,2.0,2.0,82,0.00,,,0.00,Wunderground v.1.15,2013-06-22 02:50:00,
2013-06-21 22:56:00,67.5,62.2,30.20,SW,219,2.0,3.0,83,0.00,,,0.00,Wunderground v.1.15,2013-06-22 02:56:00,
2013-06-21 23:02:00,67.0,62.0,30.19,SW,220,2.0,5.0,84,0.00,,,0.00,Wunderground v.1.15,2013-06-22 03:02:00,
2013-06-21 23:08:00,66.4,61.8,30.20,SW,228,3.0,5.0,85,0.00,,,0.00,Wunderground v.1.15,2013-06-22 03:08:00,
2013-06-21 23:14:00,66.3,61.7,30.20,SW,228,2.0,3.0,85,0.00,,,0.00,Wunderground v.1.15,2013-06-22 03:14:00,
2013-06-21 23:20:00,66.0,61.4,30.20,SSW,209,1.0,3.0,85,0.00,,,0.00,Wunderground v.1.15,2013-06-22 03:20:00,
2013-06-21 23:26:00,65.5,60.9,30.20,SW,218,1.0,4.0,85,0.00,,,0.00,Wunderground v.1.15,2013-06-22 03:26:00,
2013-06-21 23:32:00,64.8,60.5,30.20,SW,218,1.0,1.0,86,0.00,,,0.00,Wunderground v.1.15,2013-06-22 03:32:00,
2013-06-21 23:38:00,64.1,60.2,30.20,SW,218,0.0,3.0,87,0.00,,,0.00,Wunderground v.1.15,2013-06-22 03:38:00,
2013-06-21 23:44:00,63.6,59.7,30.20,SW,219,1.0,1.0,87,0.00,,,0.00,Wunderground v.1.15,2013-06-22 03:44:00,
2013-06-21 23:50:00,63.1,59.5,30.19,SW,219,1.0,1.0,88,0.00,,,0.00,Wunderground v.1.15,2013-06-22 03:50:00,
2013-06-21 23:56:00,62.8,59.2,30.20,SW,225,1.0,1.0,88,0.00,,,0.00,Wunderground v.1.15,2013-06-22 03:56:00,